createdAt,value
2023-05-05T00:00:12.214Z,12.23
2023-05-05T00:02:39.232Z,6.95
2023-05-05T00:05:06.440Z,6.88
2023-05-05T00:07:32.952Z,10.43
2023-05-05T00:09:59.583Z,8.02
2023-05-05T00:12:25.889Z,8.10
2023-05-05T00:14:52.533Z,10.52
2023-05-05T00:17:19.187Z,7.88
2023-05-05T00:19:45.521Z,9.25
2023-05-05T00:22:11.903Z,9.23
2023-05-05T00:24:38.451Z,10.95
2023-05-05T00:27:04.806Z,9.35
2023-05-05T00:29:31.348Z,18.17
2023-05-05T00:31:58.017Z,13.35
2023-05-05T00:34:24.493Z,15.50
2023-05-05T00:36:50.869Z,10.40
2023-05-05T00:39:17.513Z,10.95
2023-05-05T00:41:43.909Z,9.98
2023-05-05T00:44:10.491Z,10.35
2023-05-05T00:46:37.038Z,13.60
2023-05-05T00:49:03.582Z,10.18
2023-05-05T00:51:30.002Z,9.85
2023-05-05T00:53:57.010Z,13.38
2023-05-05T00:56:27.501Z,12.13
2023-05-05T00:58:54.126Z,11.15
2023-05-05T01:01:20.798Z,10.40
2023-05-05T01:03:47.493Z,11.93
2023-05-05T01:06:29.558Z,9.35
2023-05-05T01:09:27.394Z,12.02
2023-05-05T01:12:14.565Z,8.52
2023-05-05T01:14:46.459Z,9.05
2023-05-05T01:17:25.599Z,8.90
2023-05-05T01:20:10.871Z,10.57
2023-05-05T01:22:48.833Z,12.45
2023-05-05T01:25:40.825Z,9.27
2023-05-05T01:28:30.375Z,7.80
2023-05-05T01:31:04.018Z,7.68
2023-05-05T01:33:36.833Z,9.55
2023-05-05T01:36:10.397Z,9.30
2023-05-05T01:38:41.250Z,11.50
2023-05-05T01:41:15.214Z,10.23
2023-05-05T01:43:45.725Z,14.93
2023-05-05T01:46:14.147Z,10.23
2023-05-05T01:51:10.356Z,11.13
2023-05-05T01:53:38.574Z,13.30
2023-05-05T01:56:06.293Z,11.00
2023-05-05T01:58:33.866Z,8.87
2023-05-05T02:01:01.293Z,13.50
2023-05-05T02:03:29.856Z,10.88
2023-05-05T02:08:25.927Z,7.97
2023-05-05T02:10:54.138Z,11.85
2023-05-05T02:13:22.820Z,10.98
2023-05-05T02:15:50.393Z,8.90
2023-05-05T02:18:18.510Z,11.27
2023-05-05T02:20:46.941Z,10.50
2023-05-05T02:23:13.371Z,10.32
2023-05-05T02:25:48.974Z,10.75
2023-05-05T02:28:20.454Z,13.07
2023-05-05T02:31:00.416Z,11.43
2023-05-05T02:33:29.240Z,10.95
2023-05-05T02:35:57.378Z,11.98
2023-05-05T02:38:28.111Z,15.65
2023-05-05T02:40:56.590Z,9.65
2023-05-05T02:45:50.956Z,11.25
2023-05-05T02:48:17.409Z,9.32
2023-05-05T02:50:43.720Z,9.98
2023-05-05T02:53:10.142Z,11.50
2023-05-05T02:55:50.213Z,10.45
2023-05-05T02:58:24.756Z,9.27
2023-05-05T03:01:01.514Z,12.80
2023-05-05T03:03:35.273Z,10.50
2023-05-05T03:06:22.642Z,15.32
2023-05-05T03:08:56.340Z,12.23
2023-05-05T03:11:29.688Z,20.77
2023-05-05T03:14:05.305Z,13.30
2023-05-05T03:16:32.664Z,15.93
2023-05-05T03:19:00.501Z,8.27
2023-05-05T03:21:27.874Z,13.07
2023-05-05T03:23:54.535Z,10.43
2023-05-05T03:26:21.084Z,10.23
2023-05-05T03:28:47.534Z,12.98
2023-05-05T03:31:14.506Z,15.13
2023-05-05T03:33:40.915Z,15.00
2023-05-05T03:36:07.888Z,17.17
2023-05-05T03:38:34.666Z,17.30
2023-05-05T03:41:03.201Z,18.45
2023-05-05T03:45:55.974Z,11.40
2023-05-05T03:48:22.429Z,15.80
2023-05-05T03:50:50.092Z,10.93
2023-05-05T03:53:16.692Z,8.13
2023-05-05T03:55:42.992Z,10.27
2023-05-05T03:58:09.425Z,8.50
2023-05-05T04:00:35.785Z,11.25
2023-05-05T04:03:02.421Z,10.27
2023-05-05T04:05:28.820Z,12.88
2023-05-05T04:07:55.745Z,10.00
2023-05-05T04:10:22.141Z,11.85
2023-05-05T04:12:48.774Z,12.35
2023-05-05T04:15:15.391Z,11.13
2023-05-05T04:17:41.838Z,10.95
2023-05-05T04:20:09.562Z,16.83
2023-05-05T04:22:36.039Z,14.38
2023-05-05T04:25:02.696Z,14.50
2023-05-05T04:27:30.272Z,14.25
2023-05-05T04:29:59.178Z,14.10
2023-05-05T04:32:25.595Z,18.30
2023-05-05T04:34:51.936Z,21.30
2023-05-05T04:37:18.574Z,18.25
2023-05-05T04:39:45.482Z,17.55
2023-05-05T04:42:12.389Z,18.08
2023-05-05T04:44:39.278Z,17.13
2023-05-05T04:47:05.811Z,17.45
2023-05-05T04:49:32.390Z,19.70
2023-05-05T04:51:59.040Z,15.15
2023-05-05T04:54:25.817Z,18.02
2023-05-05T04:56:52.489Z,19.33
2023-05-05T04:59:18.856Z,20.27
2023-05-05T05:01:45.612Z,16.38
2023-05-05T05:04:13.245Z,19.25
2023-05-05T05:06:39.567Z,18.00
2023-05-05T05:09:05.942Z,19.15
2023-05-05T05:11:33.824Z,56.42
2023-05-05T05:14:00.180Z,17.00
2023-05-05T05:16:26.999Z,17.65
2023-05-05T05:18:53.647Z,24.92
2023-05-05T05:21:20.213Z,17.15
2023-05-05T05:23:47.293Z,24.00
2023-05-05T05:26:13.776Z,21.63
2023-05-05T05:28:41.900Z,18.65
2023-05-05T05:31:08.490Z,18.92
2023-05-05T05:33:34.875Z,22.58
2023-05-05T05:36:01.559Z,26.17
2023-05-05T05:38:27.905Z,23.35
2023-05-05T05:40:54.429Z,19.27
2023-05-05T05:43:21.431Z,20.05
2023-05-05T05:45:48.127Z,20.70
2023-05-05T05:48:14.523Z,19.63
2023-05-05T05:50:40.902Z,19.58
2023-05-05T05:53:07.267Z,23.20
2023-05-05T05:55:33.885Z,21.77
2023-05-05T05:58:00.322Z,29.02
2023-05-05T06:00:27.008Z,22.20
2023-05-05T06:02:53.468Z,21.73
2023-05-05T06:05:22.367Z,26.75
2023-05-05T06:07:48.699Z,27.40
2023-05-05T06:10:26.807Z,26.25
2023-05-05T06:12:54.790Z,27.63
2023-05-05T06:15:21.805Z,23.35
2023-05-05T06:17:49.319Z,25.83
2023-05-05T06:20:17.401Z,31.23
2023-05-05T06:22:43.809Z,25.83
2023-05-05T06:25:10.920Z,31.48
2023-05-05T06:27:37.562Z,37.42
2023-05-05T06:30:05.260Z,24.58
2023-05-05T06:32:31.990Z,28.00
2023-05-05T06:34:59.040Z,26.75
2023-05-05T06:37:25.597Z,28.65
2023-05-05T06:39:52.157Z,25.33
2023-05-05T06:42:19.671Z,25.55
2023-05-05T06:44:46.999Z,25.35
2023-05-05T06:47:13.311Z,24.88
2023-05-05T06:49:39.638Z,23.65
2023-05-05T06:52:08.137Z,26.13
2023-05-05T06:57:01.269Z,20.25
2023-05-05T06:59:27.585Z,20.88
2023-05-05T07:01:53.905Z,20.63
2023-05-05T07:04:21.375Z,19.88
2023-05-05T07:06:48.061Z,19.67
2023-05-05T07:09:15.740Z,22.10
2023-05-05T07:11:43.855Z,15.25
2023-05-05T07:14:10.298Z,19.27
2023-05-05T07:16:37.224Z,20.45
2023-05-05T07:19:08.121Z,20.00
2023-05-05T07:21:34.969Z,18.17
2023-05-05T07:24:03.003Z,14.60
2023-05-05T07:26:29.577Z,16.42
2023-05-05T07:28:57.440Z,18.67
2023-05-05T07:31:23.993Z,19.58
2023-05-05T07:33:50.741Z,18.52
2023-05-05T07:36:20.363Z,20.08
2023-05-05T07:38:46.709Z,17.42
2023-05-05T07:41:13.374Z,29.67
2023-05-05T07:43:44.180Z,13.65
2023-05-05T07:46:11.265Z,16.10
2023-05-05T07:48:39.018Z,18.38
2023-05-05T07:51:05.434Z,15.90
2023-05-05T07:53:31.954Z,14.15
2023-05-05T07:55:58.687Z,15.88
2023-05-05T07:58:25.151Z,20.02
2023-05-05T08:00:51.599Z,14.63
2023-05-05T08:03:20.347Z,17.48
2023-05-05T08:05:50.583Z,13.60
2023-05-05T08:08:18.272Z,15.45
2023-05-05T08:10:44.655Z,20.13
2023-05-05T08:13:11.265Z,13.60
2023-05-05T08:15:37.670Z,13.68
2023-05-05T08:18:04.542Z,11.45
2023-05-05T08:20:31.256Z,19.40
2023-05-05T08:22:57.779Z,14.98
2023-05-05T08:25:26.807Z,14.68
2023-05-05T08:27:53.534Z,13.20
2023-05-05T08:30:21.409Z,12.85
2023-05-05T08:32:47.990Z,14.45
2023-05-05T08:35:14.886Z,11.88
2023-05-05T08:37:41.289Z,16.92
2023-05-05T08:40:10.994Z,17.48
2023-05-05T08:42:39.052Z,11.50
2023-05-05T08:45:09.179Z,17.33
2023-05-05T08:47:37.132Z,11.85
2023-05-05T08:50:05.629Z,13.63
2023-05-05T08:55:29.081Z,10.70
2023-05-05T08:57:57.829Z,13.00
2023-05-05T09:00:26.877Z,9.82
2023-05-05T09:02:58.512Z,18.75
2023-05-05T09:05:26.255Z,10.52
2023-05-05T09:07:53.362Z,11.83
2023-05-05T09:10:19.805Z,11.88
2023-05-05T09:12:51.886Z,10.70
2023-05-05T09:15:18.269Z,12.93
2023-05-05T09:17:44.826Z,11.25
2023-05-05T09:20:13.002Z,12.75
2023-05-05T09:22:45.423Z,11.27
2023-05-05T09:25:14.433Z,10.40
2023-05-05T09:27:48.942Z,8.43
2023-05-05T09:30:17.576Z,10.10
2023-05-05T09:32:52.159Z,13.45
2023-05-05T09:35:21.781Z,13.32
2023-05-05T09:37:50.401Z,11.93
2023-05-05T09:40:19.163Z,15.13
2023-05-05T09:42:47.618Z,9.23
2023-05-05T09:45:20.075Z,10.43
2023-05-05T09:47:47.806Z,10.25
2023-05-05T09:50:16.383Z,8.68
2023-05-05T09:55:28.296Z,13.60
2023-05-05T09:57:55.067Z,10.75
2023-05-05T10:00:21.929Z,11.15
2023-05-05T10:02:48.665Z,9.35
2023-05-05T10:05:16.833Z,11.73
2023-05-05T10:07:47.987Z,12.00
2023-05-05T10:10:16.798Z,14.65
2023-05-05T10:12:43.909Z,13.60
2023-05-05T10:15:11.960Z,13.15
2023-05-05T10:18:02.434Z,12.98
2023-05-05T10:20:35.456Z,9.60
2023-05-05T10:23:07.619Z,14.18
2023-05-05T10:25:40.847Z,10.20
2023-05-05T10:28:11.782Z,20.33
2023-05-05T10:30:44.589Z,11.32
2023-05-05T10:35:55.095Z,11.98
2023-05-05T10:38:24.792Z,16.55
2023-05-05T10:40:54.999Z,10.88
2023-05-05T10:43:21.699Z,9.23
2023-05-05T10:45:48.492Z,12.20
2023-05-05T10:48:34.509Z,12.88
2023-05-05T10:51:38.423Z,12.18
2023-05-05T10:54:16.932Z,8.02
2023-05-05T10:56:43.645Z,7.22
2023-05-05T10:59:43.819Z,6.32
2023-05-05T11:02:20.092Z,6.80
2023-05-05T11:05:21.905Z,5.95
2023-05-05T11:07:52.181Z,8.02
2023-05-05T11:10:20.520Z,12.52
2023-05-05T11:13:00.422Z,6.88
2023-05-05T11:15:30.619Z,8.80
2023-05-05T11:18:03.162Z,6.65
2023-05-05T11:20:44.483Z,8.07
2023-05-05T11:23:10.783Z,7.05
2023-05-05T11:25:37.519Z,6.43
2023-05-05T11:28:09.771Z,5.97
2023-05-05T11:30:57.510Z,6.13
2023-05-05T11:33:28.591Z,5.32
2023-05-05T11:35:55.618Z,5.78
2023-05-05T11:38:29.691Z,8.57
2023-05-05T11:41:06.915Z,8.80
2023-05-05T11:43:34.694Z,9.73
2023-05-05T11:46:14.435Z,9.20
2023-05-05T11:48:46.233Z,6.15
2023-05-05T11:51:16.192Z,5.75
2023-05-05T11:53:47.493Z,6.00
2023-05-05T11:56:19.538Z,5.82
2023-05-05T11:58:46.896Z,6.95
2023-05-05T12:01:13.862Z,4.57
2023-05-05T12:03:41.063Z,4.97
2023-05-05T12:06:10.485Z,4.25
2023-05-05T12:08:38.105Z,4.32
2023-05-05T12:11:09.000Z,8.63
2023-05-05T12:13:35.719Z,8.98
2023-05-05T12:16:09.437Z,5.32
2023-05-05T12:18:38.361Z,7.18
2023-05-05T12:21:21.212Z,5.30
2023-05-05T12:23:47.818Z,6.97
2023-05-05T12:26:46.539Z,4.72
2023-05-05T12:29:15.409Z,3.47
2023-05-05T12:31:42.284Z,7.28
2023-05-05T12:34:10.507Z,8.30
2023-05-05T12:36:38.920Z,8.27
2023-05-05T12:41:34.157Z,5.22
2023-05-05T12:44:03.185Z,6.35
2023-05-05T12:46:31.904Z,5.15
2023-05-05T12:49:05.488Z,6.35
2023-05-05T12:51:33.975Z,9.05
2023-05-05T12:56:40.730Z,6.47
2023-05-05T12:59:11.403Z,4.70
2023-05-05T13:01:50.947Z,7.88
2023-05-05T13:04:21.955Z,6.00
2023-05-05T13:06:54.536Z,5.78
2023-05-05T13:09:26.353Z,4.85
2023-05-05T13:11:54.492Z,5.30
2023-05-05T13:14:21.366Z,10.75
2023-05-05T13:16:48.019Z,7.38
2023-05-05T13:19:14.734Z,7.82
2023-05-05T13:21:41.698Z,10.57
2023-05-05T13:24:23.446Z,15.50
2023-05-05T13:26:55.719Z,10.75
2023-05-05T13:29:23.607Z,9.68
2023-05-05T13:31:52.940Z,11.57
2023-05-05T13:34:19.280Z,11.73
2023-05-05T13:36:46.006Z,12.70
2023-05-05T13:39:15.055Z,11.05
2023-05-05T13:41:44.561Z,10.00
2023-05-05T13:44:13.949Z,11.23
2023-05-05T13:46:44.774Z,7.53
2023-05-05T13:49:11.516Z,12.70
2023-05-05T13:51:38.914Z,12.43
2023-05-05T13:54:06.474Z,11.60
2023-05-05T13:56:33.985Z,10.32
2023-05-05T13:59:01.070Z,10.70
2023-05-05T14:01:27.791Z,10.70
2023-05-05T14:03:56.921Z,10.45
2023-05-05T14:06:23.768Z,9.90
2023-05-05T14:08:50.361Z,13.20
2023-05-05T14:11:18.153Z,12.35
2023-05-05T14:13:46.428Z,12.88
2023-05-05T14:16:13.606Z,8.05
2023-05-05T14:18:40.285Z,13.05
2023-05-05T14:21:06.935Z,10.90
2023-05-05T14:23:33.662Z,8.48
2023-05-05T14:26:02.939Z,5.75
2023-05-05T14:28:29.587Z,6.72
2023-05-05T14:30:56.225Z,7.97
2023-05-05T14:33:22.732Z,8.40
2023-05-05T14:35:49.359Z,6.57
2023-05-05T14:38:15.887Z,9.63
2023-05-05T14:40:42.297Z,7.57
2023-05-05T14:43:11.906Z,6.65
2023-05-05T14:45:38.371Z,8.05
2023-05-05T14:48:05.088Z,7.35
2023-05-05T14:50:31.441Z,8.30
2023-05-05T14:52:57.985Z,6.22
2023-05-05T14:55:25.013Z,4.60
2023-05-05T14:57:52.899Z,9.30
2023-05-05T15:00:19.464Z,7.93
2023-05-05T15:02:47.963Z,7.75
2023-05-05T15:05:17.774Z,7.90
2023-05-05T15:07:44.487Z,7.93
2023-05-05T15:10:11.309Z,6.45
2023-05-05T15:12:37.778Z,6.45
2023-05-05T15:15:04.687Z,8.63
2023-05-05T15:17:31.906Z,6.90
2023-05-05T15:19:58.361Z,10.48
2023-05-05T15:22:25.012Z,5.35
2023-05-05T15:24:53.697Z,7.57
2023-05-05T15:27:20.846Z,6.97
2023-05-05T15:29:48.793Z,7.47
2023-05-05T15:32:17.678Z,5.32
2023-05-05T15:34:46.518Z,5.70
2023-05-05T15:37:14.220Z,5.65
2023-05-05T15:39:40.565Z,15.02
2023-05-05T15:42:07.465Z,7.85
2023-05-05T15:44:34.085Z,6.22
2023-05-05T15:47:00.695Z,7.05
2023-05-05T15:49:27.159Z,6.45
2023-05-05T15:51:53.786Z,6.75
2023-05-05T15:54:20.510Z,8.82
2023-05-05T15:56:47.036Z,8.93
2023-05-05T15:59:13.678Z,8.43
2023-05-05T16:01:40.380Z,7.35
2023-05-05T16:04:08.319Z,7.25
2023-05-05T16:06:34.755Z,3.10
2023-05-05T16:09:01.463Z,3.40
2023-05-05T16:11:31.690Z,3.80
2023-05-05T16:13:58.338Z,2.63
2023-05-05T16:16:24.850Z,4.53
2023-05-05T16:18:52.094Z,9.27
2023-05-05T16:21:18.733Z,2.80
2023-05-05T16:23:45.210Z,3.05
2023-05-05T16:26:11.788Z,5.93
2023-05-05T16:28:38.747Z,6.43
2023-05-05T16:31:05.230Z,4.95
2023-05-05T16:33:31.704Z,8.50
2023-05-05T16:35:58.332Z,3.53
2023-05-05T16:38:26.224Z,5.72
2023-05-05T16:40:52.922Z,4.10
2023-05-05T16:43:19.643Z,3.85
2023-05-05T16:45:46.772Z,5.85
2023-05-05T16:48:14.835Z,3.75
2023-05-05T16:50:41.571Z,8.05
2023-05-05T16:53:10.110Z,3.58
2023-05-05T16:58:04.210Z,9.15
2023-05-05T17:00:30.574Z,9.52
2023-05-05T17:02:56.995Z,5.28
2023-05-05T17:05:23.987Z,3.78
2023-05-05T17:07:50.512Z,4.65
2023-05-05T17:10:16.857Z,7.72
2023-05-05T17:12:43.234Z,7.32
2023-05-05T17:15:10.174Z,4.35
2023-05-05T17:17:37.201Z,4.45
2023-05-05T17:20:05.240Z,2.42
2023-05-05T17:22:34.431Z,4.25
2023-05-05T17:25:01.122Z,4.40
2023-05-05T17:27:27.492Z,10.10
2023-05-05T17:29:54.538Z,8.77
2023-05-05T17:32:25.665Z,8.50
2023-05-05T17:34:52.186Z,11.23
2023-05-05T17:37:18.504Z,5.65
2023-05-05T17:39:44.961Z,6.35
2023-05-05T17:42:11.334Z,6.28
2023-05-05T17:44:38.013Z,5.18
2023-05-05T17:47:07.532Z,3.95
2023-05-05T17:49:35.013Z,4.40
2023-05-05T17:52:01.489Z,5.03
2023-05-05T17:54:28.094Z,12.10
2023-05-05T17:56:54.926Z,4.60
2023-05-05T17:59:21.305Z,3.80
2023-05-05T18:01:47.853Z,3.42
2023-05-05T18:04:16.165Z,3.42
2023-05-05T18:06:43.012Z,7.93
2023-05-05T18:09:10.981Z,3.28
2023-05-05T18:11:37.739Z,4.88
2023-05-05T18:14:04.114Z,8.48
2023-05-05T18:16:31.183Z,9.68
2023-05-05T18:18:57.744Z,4.40
2023-05-05T18:21:24.118Z,4.25
2023-05-05T18:23:50.954Z,2.90
2023-05-05T18:26:17.345Z,4.03
2023-05-05T18:28:43.798Z,5.53
2023-05-05T18:31:10.264Z,3.53
2023-05-05T18:33:36.848Z,7.70
2023-05-05T18:36:03.796Z,7.20
2023-05-05T18:38:31.594Z,5.03
2023-05-05T18:40:58.110Z,4.28
2023-05-05T18:43:24.423Z,3.58
2023-05-05T18:45:51.041Z,4.97
2023-05-05T18:48:17.706Z,4.00
2023-05-05T18:50:44.277Z,3.47
2023-05-05T18:53:13.527Z,6.35
2023-05-05T18:55:39.945Z,5.10
2023-05-05T18:58:06.385Z,5.13
2023-05-05T19:00:32.798Z,4.63
2023-05-05T19:02:59.377Z,5.15
2023-05-05T19:05:27.168Z,12.10
2023-05-05T19:07:53.568Z,8.37
2023-05-05T19:10:20.067Z,6.95
2023-05-05T19:12:46.612Z,13.73
2023-05-05T19:15:13.403Z,5.90
2023-05-05T19:17:39.808Z,7.38
2023-05-05T19:20:06.763Z,5.82
2023-05-05T19:22:33.151Z,5.25
2023-05-05T19:24:59.822Z,6.15
2023-05-05T19:27:26.584Z,5.70
2023-05-05T19:29:53.161Z,7.38
2023-05-05T19:32:21.345Z,4.97
2023-05-05T19:34:48.190Z,6.65
2023-05-05T19:37:14.618Z,4.43
2023-05-05T19:39:43.082Z,5.63
2023-05-05T19:42:09.799Z,7.45
2023-05-05T19:44:36.141Z,8.13
2023-05-05T19:47:03.250Z,8.88
2023-05-05T19:49:30.358Z,5.43
2023-05-05T19:52:00.498Z,7.82
2023-05-05T19:54:33.085Z,7.20
2023-05-05T19:57:00.876Z,7.03
2023-05-05T19:59:27.405Z,7.15
2023-05-05T20:01:56.301Z,7.07
2023-05-05T20:04:23.006Z,7.10
2023-05-05T20:06:49.577Z,8.57
2023-05-05T20:09:15.962Z,9.25
2023-05-05T20:11:42.588Z,10.50
2023-05-05T20:14:09.191Z,10.48
2023-05-05T20:16:36.000Z,10.65
2023-05-05T20:19:03.524Z,9.85
2023-05-05T20:21:29.975Z,9.75
2023-05-05T20:23:56.503Z,11.20
2023-05-05T20:26:24.598Z,8.75
2023-05-05T20:28:51.200Z,9.02
2023-05-05T20:31:17.632Z,11.75
2023-05-05T20:33:44.727Z,12.35
2023-05-05T20:36:11.545Z,13.30
2023-05-05T20:38:38.114Z,11.80
2023-05-05T20:41:04.552Z,15.68
2023-05-05T20:43:31.149Z,20.20
2023-05-05T20:45:57.501Z,21.35
2023-05-05T20:48:23.874Z,19.60
2023-05-05T20:50:51.099Z,18.52
2023-05-05T20:53:19.089Z,18.35
2023-05-05T20:55:45.495Z,17.67
2023-05-05T20:58:12.133Z,17.73
2023-05-05T21:00:38.575Z,19.35
2023-05-05T21:03:05.299Z,16.33
2023-05-05T21:05:31.944Z,18.00
2023-05-05T21:08:00.650Z,16.92
2023-05-05T21:10:28.845Z,17.85
2023-05-05T21:12:58.507Z,18.13
2023-05-05T21:15:24.977Z,22.42
2023-05-05T21:17:51.722Z,17.48
2023-05-05T21:20:18.594Z,19.67
2023-05-05T21:22:45.853Z,17.40
2023-05-05T21:25:20.831Z,18.88
2023-05-05T21:27:48.429Z,18.77
2023-05-05T21:30:15.815Z,17.47
2023-05-05T21:32:42.616Z,17.60
2023-05-05T21:35:09.526Z,18.27
2023-05-05T21:37:39.846Z,18.80
2023-05-05T21:40:10.576Z,17.00
2023-05-05T21:42:37.476Z,13.60
2023-05-05T21:45:04.151Z,26.88
2023-05-05T21:47:30.811Z,16.13
2023-05-05T21:49:58.178Z,16.60
2023-05-05T21:52:24.916Z,17.13
2023-05-05T21:54:51.289Z,19.33
2023-05-05T21:57:17.705Z,19.73
2023-05-05T21:59:44.099Z,17.50
2023-05-05T22:02:10.430Z,16.95
2023-05-05T22:04:36.853Z,17.95
2023-05-05T22:07:03.240Z,18.17
2023-05-05T22:09:29.682Z,18.85
2023-05-05T22:11:57.589Z,19.02
2023-05-05T22:14:24.266Z,16.80
2023-05-05T22:16:51.071Z,15.05
2023-05-05T22:19:17.944Z,15.55
2023-05-05T22:21:44.307Z,14.80
2023-05-05T22:24:11.020Z,18.20
2023-05-05T22:26:39.720Z,20.70
2023-05-05T22:29:06.246Z,18.88
2023-05-05T22:31:32.704Z,18.15
2023-05-05T22:33:59.043Z,22.27
2023-05-05T22:36:25.814Z,33.88
2023-05-05T22:38:52.276Z,27.63
2023-05-05T22:41:18.860Z,26.02
2023-05-05T22:43:45.551Z,22.40
2023-05-05T22:46:12.152Z,25.42
2023-05-05T22:48:38.612Z,22.63
2023-05-05T22:51:05.364Z,23.40
2023-05-05T22:53:31.948Z,32.30
2023-05-05T22:55:58.627Z,21.98
2023-05-05T22:58:25.649Z,23.77
2023-05-05T23:00:52.118Z,23.00
2023-05-05T23:03:18.773Z,24.38
2023-05-05T23:05:45.082Z,25.48
2023-05-05T23:08:11.636Z,26.23
2023-05-05T23:10:38.026Z,40.47
2023-05-05T23:13:04.524Z,45.53
2023-05-05T23:15:31.087Z,33.42
2023-05-05T23:17:57.564Z,80.30
2023-05-05T23:20:24.133Z,27.85
2023-05-05T23:22:50.738Z,43.58
2023-05-05T23:25:17.224Z,50.20
2023-05-05T23:27:43.864Z,113.15
2023-05-05T23:30:10.893Z,47.50
2023-05-05T23:32:37.559Z,34.05
2023-05-05T23:35:05.843Z,31.23
2023-05-05T23:37:32.230Z,37.85
2023-05-05T23:39:58.596Z,34.58
2023-05-05T23:42:25.237Z,28.02
2023-05-05T23:44:51.638Z,25.77
2023-05-05T23:47:18.061Z,28.15
2023-05-05T23:49:44.369Z,30.75
2023-05-05T23:52:11.282Z,42.25
2023-05-05T23:54:37.688Z,46.22
2023-05-05T23:57:04.129Z,63.40
2023-05-05T23:59:30.576Z,60.05
